Terminal Aerodrome Forecast
Issued by NWS Buffalo, NY

Home | Current Version | Previous Version | Text Only | Print | Product List | Glossary On
Versions: 1 2 3 4 5 6 7 8 9 10 11 12 13 14 15 16 17 18 19 20 21 22 23 24 25
332
FTUS41 KBUF 251426 AAA
TAFBUF
TAF AMD
KBUF 251426Z 2514/2612 22011KT P6SM SCT007 BKN018 BKN025
     FM251530 25014G22KT P6SM SCT040
     FM252300 24010KT P6SM VCSH BKN040
     FM260700 26006KT 6SM BR BKN025=

USA.gov is the U.S. government's official web portal to all federal, state and local government web resources and services.